sensor_id;sensor_type;location;lat;lon;timestamp;temperature;humidity
59469;DHT22;45277;52.768;18.262;2023-03-14T00:00:14;11.10;99.90
59469;DHT22;45277;52.768;18.262;2023-03-14T00:02:05;11.10;99.90
59469;DHT22;45277;52.768;18.262;2023-03-14T00:03:37;11.10;99.90
59469;DHT22;45277;52.768;18.262;2023-03-14T00:05:09;11.10;99.90
59469;DHT22;45277;52.768;18.262;2023-03-14T00:06:40;11.10;99.90
59469;DHT22;45277;52.768;18.262;2023-03-14T00:08:12;11.10;99.90
59469;DHT22;45277;52.768;18.262;2023-03-14T00:09:43;11.10;99.90
59469;DHT22;45277;52.768;18.262;2023-03-14T00:11:18;11.10;99.90
59469;DHT22;45277;52.768;18.262;2023-03-14T00:12:50;11.10;99.90
59469;DHT22;45277;52.768;18.262;2023-03-14T00:14:22;11.10;99.90
59469;DHT22;45277;52.768;18.262;2023-03-14T00:15:53;11.10;99.90
59469;DHT22;45277;52.768;18.262;2023-03-14T00:17:26;11.10;99.90
59469;DHT22;45277;52.768;18.262;2023-03-14T00:19:01;11.10;99.90
59469;DHT22;45277;52.768;18.262;2023-03-14T00:20:32;11.10;99.90
59469;DHT22;45277;52.768;18.262;2023-03-14T00:22:04;11.10;99.90
59469;DHT22;45277;52.768;18.262;2023-03-14T00:23:37;11.10;99.90
59469;DHT22;45277;52.768;18.262;2023-03-14T00:25:10;11.10;99.90
59469;DHT22;45277;52.768;18.262;2023-03-14T00:26:41;11.10;99.90
59469;DHT22;45277;52.768;18.262;2023-03-14T00:28:13;11.10;99.90
59469;DHT22;45277;52.768;18.262;2023-03-14T00:29:44;11.10;99.90
59469;DHT22;45277;52.768;18.262;2023-03-14T00:31:16;11.10;99.90
59469;DHT22;45277;52.768;18.262;2023-03-14T00:32:48;11.10;99.90
59469;DHT22;45277;52.768;18.262;2023-03-14T00:34:19;11.00;99.90
59469;DHT22;45277;52.768;18.262;2023-03-14T00:36:03;11.10;99.90
59469;DHT22;45277;52.768;18.262;2023-03-14T00:37:35;11.10;99.90
59469;DHT22;45277;52.768;18.262;2023-03-14T00:39:06;11.10;99.90
59469;DHT22;45277;52.768;18.262;2023-03-14T00:40:39;11.00;99.90
59469;DHT22;45277;52.768;18.262;2023-03-14T00:42:10;11.10;99.90
59469;DHT22;45277;52.768;18.262;2023-03-14T00:43:42;11.10;99.90
59469;DHT22;45277;52.768;18.262;2023-03-14T00:45:13;11.00;99.90
59469;DHT22;45277;52.768;18.262;2023-03-14T00:46:45;11.00;99.90
59469;DHT22;45277;52.768;18.262;2023-03-14T00:48:20;11.00;99.90
59469;DHT22;45277;52.768;18.262;2023-03-14T00:49:51;11.00;99.90
59469;DHT22;45277;52.768;18.262;2023-03-14T00:51:23;11.10;99.90
59469;DHT22;45277;52.768;18.262;2023-03-14T00:52:54;11.00;99.90
59469;DHT22;45277;52.768;18.262;2023-03-14T00:54:25;11.10;99.90
59469;DHT22;45277;52.768;18.262;2023-03-14T00:56:01;11.10;99.90
59469;DHT22;45277;52.768;18.262;2023-03-14T00:57:33;11.00;99.90
59469;DHT22;45277;52.768;18.262;2023-03-14T00:59:04;11.00;99.90
59469;DHT22;45277;52.768;18.262;2023-03-14T01:00:36;11.00;99.90
59469;DHT22;45277;52.768;18.262;2023-03-14T01:02:08;11.00;99.90
59469;DHT22;45277;52.768;18.262;2023-03-14T01:03:39;11.00;99.90
59469;DHT22;45277;52.768;18.262;2023-03-14T01:05:11;11.00;99.90
59469;DHT22;45277;52.768;18.262;2023-03-14T01:06:42;11.00;99.90
59469;DHT22;45277;52.768;18.262;2023-03-14T01:08:13;11.00;99.90
59469;DHT22;45277;52.768;18.262;2023-03-14T01:09:45;11.00;99.90
59469;DHT22;45277;52.768;18.262;2023-03-14T01:11:22;11.00;99.90
59469;DHT22;45277;52.768;18.262;2023-03-14T01:12:54;11.00;99.90
59469;DHT22;45277;52.768;18.262;2023-03-14T01:14:26;11.00;99.90
59469;DHT22;45277;52.768;18.262;2023-03-14T01:16:02;11.00;99.90
59469;DHT22;45277;52.768;18.262;2023-03-14T01:17:35;10.90;99.90
59469;DHT22;45277;52.768;18.262;2023-03-14T01:19:09;10.90;99.90
59469;DHT22;45277;52.768;18.262;2023-03-14T01:20:40;10.90;99.90
59469;DHT22;45277;52.768;18.262;2023-03-14T01:22:12;10.90;99.90
59469;DHT22;45277;52.768;18.262;2023-03-14T01:23:44;10.90;99.90
59469;DHT22;45277;52.768;18.262;2023-03-14T01:25:17;10.90;99.90
59469;DHT22;45277;52.768;18.262;2023-03-14T01:26:48;10.90;99.90
59469;DHT22;45277;52.768;18.262;2023-03-14T01:28:20;10.90;99.90
59469;DHT22;45277;52.768;18.262;2023-03-14T01:29:51;10.90;99.90
59469;DHT22;45277;52.768;18.262;2023-03-14T01:31:24;10.90;99.90
59469;DHT22;45277;52.768;18.262;2023-03-14T01:32:55;10.90;99.90
59469;DHT22;45277;52.768;18.262;2023-03-14T01:34:27;10.90;99.90
59469;DHT22;45277;52.768;18.262;2023-03-14T01:35:58;10.90;99.90
59469;DHT22;45277;52.768;18.262;2023-03-14T01:37:30;10.90;99.90
59469;DHT22;45277;52.768;18.262;2023-03-14T01:39:02;10.90;99.90
59469;DHT22;45277;52.768;18.262;2023-03-14T01:40:33;11.00;99.90
59469;DHT22;45277;52.768;18.262;2023-03-14T01:42:05;11.00;99.90
59469;DHT22;45277;52.768;18.262;2023-03-14T01:43:36;11.00;99.90
59469;DHT22;45277;52.768;18.262;2023-03-14T01:47:16;11.00;99.90
59469;DHT22;45277;52.768;18.262;2023-03-14T01:50:23;11.10;99.90
59469;DHT22;45277;52.768;18.262;2023-03-14T01:52:05;11.10;99.90
59469;DHT22;45277;52.768;18.262;2023-03-14T01:53:39;11.10;99.90
59469;DHT22;45277;52.768;18.262;2023-03-14T01:55:15;11.20;99.90
59469;DHT22;45277;52.768;18.262;2023-03-14T01:56:56;11.30;99.90
59469;DHT22;45277;52.768;18.262;2023-03-14T01:58:29;11.40;99.90
59469;DHT22;45277;52.768;18.262;2023-03-14T02:02:38;11.60;99.90
59469;DHT22;45277;52.768;18.262;2023-03-14T02:04:11;11.70;99.90
59469;DHT22;45277;52.768;18.262;2023-03-14T02:05:44;11.70;99.90
59469;DHT22;45277;52.768;18.262;2023-03-14T02:07:37;11.70;99.90
59469;DHT22;45277;52.768;18.262;2023-03-14T02:09:11;11.70;99.90
59469;DHT22;45277;52.768;18.262;2023-03-14T02:10:45;11.60;99.90
59469;DHT22;45277;52.768;18.262;2023-03-14T02:12:18;11.60;99.90
59469;DHT22;45277;52.768;18.262;2023-03-14T02:13:51;11.60;99.90
59469;DHT22;45277;52.768;18.262;2023-03-14T02:15:23;11.60;99.90
59469;DHT22;45277;52.768;18.262;2023-03-14T02:16:54;11.60;99.90
59469;DHT22;45277;52.768;18.262;2023-03-14T02:18:26;11.60;99.90
59469;DHT22;45277;52.768;18.262;2023-03-14T02:27:05;11.50;99.90
59469;DHT22;45277;52.768;18.262;2023-03-14T02:28:37;11.40;99.90
59469;DHT22;45277;52.768;18.262;2023-03-14T02:30:26;11.40;99.90
59469;DHT22;45277;52.768;18.262;2023-03-14T02:31:57;11.40;99.90
59469;DHT22;45277;52.768;18.262;2023-03-14T02:33:29;11.30;99.90
59469;DHT22;45277;52.768;18.262;2023-03-14T02:35:09;11.40;99.90
59469;DHT22;45277;52.768;18.262;2023-03-14T02:36:42;11.40;99.90
59469;DHT22;45277;52.768;18.262;2023-03-14T02:38:25;11.40;99.90
59469;DHT22;45277;52.768;18.262;2023-03-14T02:39:58;11.40;99.90
59469;DHT22;45277;52.768;18.262;2023-03-14T02:41:30;11.40;99.90
59469;DHT22;45277;52.768;18.262;2023-03-14T02:43:02;11.40;99.90
59469;DHT22;45277;52.768;18.262;2023-03-14T02:44:33;11.40;99.90
59469;DHT22;45277;52.768;18.262;2023-03-14T02:46:12;11.40;99.90
59469;DHT22;45277;52.768;18.262;2023-03-14T02:47:54;11.40;99.90
59469;DHT22;45277;52.768;18.262;2023-03-14T02:49:27;11.40;99.90
59469;DHT22;45277;52.768;18.262;2023-03-14T02:51:01;11.40;99.90
59469;DHT22;45277;52.768;18.262;2023-03-14T02:52:33;11.40;99.90
59469;DHT22;45277;52.768;18.262;2023-03-14T02:54:05;11.40;99.90
59469;DHT22;45277;52.768;18.262;2023-03-14T02:55:36;11.40;99.90
59469;DHT22;45277;52.768;18.262;2023-03-14T02:57:08;11.40;99.90
59469;DHT22;45277;52.768;18.262;2023-03-14T02:58:39;11.30;99.90
59469;DHT22;45277;52.768;18.262;2023-03-14T03:00:11;11.20;99.90
59469;DHT22;45277;52.768;18.262;2023-03-14T03:01:43;11.20;99.90
59469;DHT22;45277;52.768;18.262;2023-03-14T03:03:14;11.10;99.90
59469;DHT22;45277;52.768;18.262;2023-03-14T03:04:45;11.10;99.90
59469;DHT22;45277;52.768;18.262;2023-03-14T03:06:17;11.10;99.90
59469;DHT22;45277;52.768;18.262;2023-03-14T03:07:48;11.00;99.90
59469;DHT22;45277;52.768;18.262;2023-03-14T03:09:19;10.90;99.90
59469;DHT22;45277;52.768;18.262;2023-03-14T03:10:51;10.90;99.90
59469;DHT22;45277;52.768;18.262;2023-03-14T03:12:22;10.90;99.90
59469;DHT22;45277;52.768;18.262;2023-03-14T03:13:54;10.90;99.90
59469;DHT22;45277;52.768;18.262;2023-03-14T03:15:26;10.80;99.90
59469;DHT22;45277;52.768;18.262;2023-03-14T03:16:57;10.80;99.90
59469;DHT22;45277;52.768;18.262;2023-03-14T03:18:28;10.80;99.90
59469;DHT22;45277;52.768;18.262;2023-03-14T03:20:00;10.80;99.90
59469;DHT22;45277;52.768;18.262;2023-03-14T03:21:31;10.80;99.90
59469;DHT22;45277;52.768;18.262;2023-03-14T03:23:03;10.90;99.90
59469;DHT22;45277;52.768;18.262;2023-03-14T03:24:35;10.80;99.90
59469;DHT22;45277;52.768;18.262;2023-03-14T03:26:06;10.80;99.90
59469;DHT22;45277;52.768;18.262;2023-03-14T03:27:38;10.80;99.90
59469;DHT22;45277;52.768;18.262;2023-03-14T03:29:09;10.80;99.90
59469;DHT22;45277;52.768;18.262;2023-03-14T03:30:41;10.80;99.90
59469;DHT22;45277;52.768;18.262;2023-03-14T03:32:13;10.80;99.90
59469;DHT22;45277;52.768;18.262;2023-03-14T03:33:44;10.70;99.90
59469;DHT22;45277;52.768;18.262;2023-03-14T03:35:16;10.60;99.90
59469;DHT22;45277;52.768;18.262;2023-03-14T03:36:47;10.60;99.90
59469;DHT22;45277;52.768;18.262;2023-03-14T03:38:19;10.70;99.90
59469;DHT22;45277;52.768;18.262;2023-03-14T03:39:51;10.60;99.90
59469;DHT22;45277;52.768;18.262;2023-03-14T03:41:23;10.60;99.90
59469;DHT22;45277;52.768;18.262;2023-03-14T03:42:54;10.50;99.90
59469;DHT22;45277;52.768;18.262;2023-03-14T03:44:26;10.50;99.90
59469;DHT22;45277;52.768;18.262;2023-03-14T03:45:57;10.50;99.90
59469;DHT22;45277;52.768;18.262;2023-03-14T03:47:30;10.50;99.90
59469;DHT22;45277;52.768;18.262;2023-03-14T03:49:02;10.50;99.90
59469;DHT22;45277;52.768;18.262;2023-03-14T03:50:33;10.40;99.90
59469;DHT22;45277;52.768;18.262;2023-03-14T03:52:05;10.30;99.90
59469;DHT22;45277;52.768;18.262;2023-03-14T03:53:36;10.30;99.90
59469;DHT22;45277;52.768;18.262;2023-03-14T03:55:08;10.20;99.90
59469;DHT22;45277;52.768;18.262;2023-03-14T03:56:39;10.20;99.90
59469;DHT22;45277;52.768;18.262;2023-03-14T03:58:11;10.20;99.90
59469;DHT22;45277;52.768;18.262;2023-03-14T03:59:42;10.10;99.90
59469;DHT22;45277;52.768;18.262;2023-03-14T04:01:14;10.20;99.90
59469;DHT22;45277;52.768;18.262;2023-03-14T04:02:45;10.20;99.90
59469;DHT22;45277;52.768;18.262;2023-03-14T04:04:16;10.20;99.90
59469;DHT22;45277;52.768;18.262;2023-03-14T04:05:58;10.20;99.90
59469;DHT22;45277;52.768;18.262;2023-03-14T04:07:32;10.20;99.90
59469;DHT22;45277;52.768;18.262;2023-03-14T04:09:04;10.20;99.90
59469;DHT22;45277;52.768;18.262;2023-03-14T04:10:35;10.20;99.90
59469;DHT22;45277;52.768;18.262;2023-03-14T04:12:07;10.20;99.90
59469;DHT22;45277;52.768;18.262;2023-03-14T04:13:38;10.10;99.90
59469;DHT22;45277;52.768;18.262;2023-03-14T04:15:10;10.10;99.90
59469;DHT22;45277;52.768;18.262;2023-03-14T04:16:42;10.00;99.90
59469;DHT22;45277;52.768;18.262;2023-03-14T04:18:13;9.90;99.90
59469;DHT22;45277;52.768;18.262;2023-03-14T04:19:45;9.80;99.90
59469;DHT22;45277;52.768;18.262;2023-03-14T04:21:16;9.80;99.90
59469;DHT22;45277;52.768;18.262;2023-03-14T04:22:48;9.70;99.90
59469;DHT22;45277;52.768;18.262;2023-03-14T04:24:20;9.70;99.90
59469;DHT22;45277;52.768;18.262;2023-03-14T04:25:52;9.60;99.90
59469;DHT22;45277;52.768;18.262;2023-03-14T04:27:23;9.60;99.90
59469;DHT22;45277;52.768;18.262;2023-03-14T04:28:55;9.60;99.90
59469;DHT22;45277;52.768;18.262;2023-03-14T04:30:26;9.50;99.90
59469;DHT22;45277;52.768;18.262;2023-03-14T04:31:58;9.50;99.90
59469;DHT22;45277;52.768;18.262;2023-03-14T04:33:29;9.50;99.90
59469;DHT22;45277;52.768;18.262;2023-03-14T04:35:01;9.50;99.90
59469;DHT22;45277;52.768;18.262;2023-03-14T04:36:32;9.50;99.90
59469;DHT22;45277;52.768;18.262;2023-03-14T04:38:04;9.50;99.90
59469;DHT22;45277;52.768;18.262;2023-03-14T04:39:35;9.50;99.90
59469;DHT22;45277;52.768;18.262;2023-03-14T04:41:07;9.50;99.90
59469;DHT22;45277;52.768;18.262;2023-03-14T04:42:38;9.50;99.90
59469;DHT22;45277;52.768;18.262;2023-03-14T04:44:09;9.60;99.90
59469;DHT22;45277;52.768;18.262;2023-03-14T04:45:41;9.50;99.90
59469;DHT22;45277;52.768;18.262;2023-03-14T04:47:13;9.60;99.90
59469;DHT22;45277;52.768;18.262;2023-03-14T04:48:44;9.60;99.90
59469;DHT22;45277;52.768;18.262;2023-03-14T04:50:16;9.50;99.90
59469;DHT22;45277;52.768;18.262;2023-03-14T04:51:47;9.50;99.90
59469;DHT22;45277;52.768;18.262;2023-03-14T04:53:21;9.50;99.90
59469;DHT22;45277;52.768;18.262;2023-03-14T04:54:53;9.40;99.90
59469;DHT22;45277;52.768;18.262;2023-03-14T04:56:24;9.40;99.90
59469;DHT22;45277;52.768;18.262;2023-03-14T04:57:56;9.40;99.90
59469;DHT22;45277;52.768;18.262;2023-03-14T04:59:27;9.30;99.90
59469;DHT22;45277;52.768;18.262;2023-03-14T05:01:03;9.30;99.90
59469;DHT22;45277;52.768;18.262;2023-03-14T05:02:35;9.20;99.90
59469;DHT22;45277;52.768;18.262;2023-03-14T05:04:07;9.20;99.90
59469;DHT22;45277;52.768;18.262;2023-03-14T05:05:38;9.20;99.90
59469;DHT22;45277;52.768;18.262;2023-03-14T05:07:10;9.20;99.90
59469;DHT22;45277;52.768;18.262;2023-03-14T05:08:41;9.10;99.90
59469;DHT22;45277;52.768;18.262;2023-03-14T05:10:13;9.10;99.90
59469;DHT22;45277;52.768;18.262;2023-03-14T05:11:44;9.00;99.90
59469;DHT22;45277;52.768;18.262;2023-03-14T05:13:15;9.00;99.90
59469;DHT22;45277;52.768;18.262;2023-03-14T05:14:47;9.10;99.90
59469;DHT22;45277;52.768;18.262;2023-03-14T05:16:19;9.10;99.90
59469;DHT22;45277;52.768;18.262;2023-03-14T05:17:50;9.00;99.90
59469;DHT22;45277;52.768;18.262;2023-03-14T05:19:22;9.00;99.90
59469;DHT22;45277;52.768;18.262;2023-03-14T05:20:53;9.00;99.90
59469;DHT22;45277;52.768;18.262;2023-03-14T05:22:24;8.90;99.90
59469;DHT22;45277;52.768;18.262;2023-03-14T05:23:56;8.90;99.90
59469;DHT22;45277;52.768;18.262;2023-03-14T05:25:28;8.90;99.90
59469;DHT22;45277;52.768;18.262;2023-03-14T05:26:59;8.90;99.90
59469;DHT22;45277;52.768;18.262;2023-03-14T05:28:31;8.90;99.90
59469;DHT22;45277;52.768;18.262;2023-03-14T05:30:04;8.90;99.90
59469;DHT22;45277;52.768;18.262;2023-03-14T05:31:35;8.90;99.90
59469;DHT22;45277;52.768;18.262;2023-03-14T05:33:07;8.90;99.90
59469;DHT22;45277;52.768;18.262;2023-03-14T05:34:39;8.90;99.90
59469;DHT22;45277;52.768;18.262;2023-03-14T05:36:10;8.90;99.90
59469;DHT22;45277;52.768;18.262;2023-03-14T05:37:42;8.90;99.90
59469;DHT22;45277;52.768;18.262;2023-03-14T05:39:13;8.90;99.90
59469;DHT22;45277;52.768;18.262;2023-03-14T05:40:45;8.90;99.90
59469;DHT22;45277;52.768;18.262;2023-03-14T05:42:17;8.80;99.90
59469;DHT22;45277;52.768;18.262;2023-03-14T05:43:48;8.90;99.90
59469;DHT22;45277;52.768;18.262;2023-03-14T05:45:20;8.90;99.90
59469;DHT22;45277;52.768;18.262;2023-03-14T05:46:51;8.90;99.90
59469;DHT22;45277;52.768;18.262;2023-03-14T05:48:23;8.90;99.90
59469;DHT22;45277;52.768;18.262;2023-03-14T05:49:54;8.90;99.90
59469;DHT22;45277;52.768;18.262;2023-03-14T05:51:26;8.90;99.90
59469;DHT22;45277;52.768;18.262;2023-03-14T05:52:58;9.00;99.90
59469;DHT22;45277;52.768;18.262;2023-03-14T05:54:29;9.00;99.90
59469;DHT22;45277;52.768;18.262;2023-03-14T05:56:01;9.00;99.90
59469;DHT22;45277;52.768;18.262;2023-03-14T05:57:32;9.00;99.90
59469;DHT22;45277;52.768;18.262;2023-03-14T05:59:04;9.10;99.90
59469;DHT22;45277;52.768;18.262;2023-03-14T06:00:35;9.10;99.90
59469;DHT22;45277;52.768;18.262;2023-03-14T06:02:07;9.10;99.90
59469;DHT22;45277;52.768;18.262;2023-03-14T06:03:39;9.10;99.90
59469;DHT22;45277;52.768;18.262;2023-03-14T06:05:11;9.20;99.90
59469;DHT22;45277;52.768;18.262;2023-03-14T06:06:43;9.20;99.90
59469;DHT22;45277;52.768;18.262;2023-03-14T06:08:15;9.20;99.90
59469;DHT22;45277;52.768;18.262;2023-03-14T06:09:47;9.30;99.90
59469;DHT22;45277;52.768;18.262;2023-03-14T06:11:19;9.30;99.90
59469;DHT22;45277;52.768;18.262;2023-03-14T06:12:50;9.30;99.90
59469;DHT22;45277;52.768;18.262;2023-03-14T06:14:22;9.40;99.90
59469;DHT22;45277;52.768;18.262;2023-03-14T06:15:54;9.50;99.90
59469;DHT22;45277;52.768;18.262;2023-03-14T06:17:25;9.60;99.90
59469;DHT22;45277;52.768;18.262;2023-03-14T06:18:57;9.60;99.90
59469;DHT22;45277;52.768;18.262;2023-03-14T06:20:28;9.70;99.90
59469;DHT22;45277;52.768;18.262;2023-03-14T06:22:00;9.70;99.90
59469;DHT22;45277;52.768;18.262;2023-03-14T06:23:32;9.80;99.90
59469;DHT22;45277;52.768;18.262;2023-03-14T06:25:03;9.80;99.90
59469;DHT22;45277;52.768;18.262;2023-03-14T06:26:35;9.90;99.90
59469;DHT22;45277;52.768;18.262;2023-03-14T06:28:07;9.90;99.90
59469;DHT22;45277;52.768;18.262;2023-03-14T06:29:38;10.00;99.90
59469;DHT22;45277;52.768;18.262;2023-03-14T06:31:09;10.00;99.90
59469;DHT22;45277;52.768;18.262;2023-03-14T06:32:41;10.10;99.90
59469;DHT22;45277;52.768;18.262;2023-03-14T06:34:13;10.10;99.90
59469;DHT22;45277;52.768;18.262;2023-03-14T06:35:44;10.20;99.90
59469;DHT22;45277;52.768;18.262;2023-03-14T06:37:16;10.20;99.90
59469;DHT22;45277;52.768;18.262;2023-03-14T06:38:48;10.30;99.90
59469;DHT22;45277;52.768;18.262;2023-03-14T06:40:19;10.30;99.90
59469;DHT22;45277;52.768;18.262;2023-03-14T06:41:51;10.40;99.90
59469;DHT22;45277;52.768;18.262;2023-03-14T06:43:22;10.40;99.90
59469;DHT22;45277;52.768;18.262;2023-03-14T06:44:54;10.40;99.90
59469;DHT22;45277;52.768;18.262;2023-03-14T06:46:26;10.40;99.90
59469;DHT22;45277;52.768;18.262;2023-03-14T06:47:57;10.40;99.90
59469;DHT22;45277;52.768;18.262;2023-03-14T06:49:28;10.40;99.90
59469;DHT22;45277;52.768;18.262;2023-03-14T06:51:00;10.50;99.90
59469;DHT22;45277;52.768;18.262;2023-03-14T06:52:32;10.50;99.90
59469;DHT22;45277;52.768;18.262;2023-03-14T06:54:04;10.50;99.90
59469;DHT22;45277;52.768;18.262;2023-03-14T06:55:36;10.60;99.90
59469;DHT22;45277;52.768;18.262;2023-03-14T06:57:07;10.50;99.90
59469;DHT22;45277;52.768;18.262;2023-03-14T06:58:39;10.50;99.90
59469;DHT22;45277;52.768;18.262;2023-03-14T07:00:12;10.60;99.90
59469;DHT22;45277;52.768;18.262;2023-03-14T07:01:43;10.60;99.90
59469;DHT22;45277;52.768;18.262;2023-03-14T07:03:15;10.60;99.90
59469;DHT22;45277;52.768;18.262;2023-03-14T07:04:46;10.60;99.90
59469;DHT22;45277;52.768;18.262;2023-03-14T07:06:18;10.60;99.90
59469;DHT22;45277;52.768;18.262;2023-03-14T07:07:50;10.60;99.90
59469;DHT22;45277;52.768;18.262;2023-03-14T07:09:22;10.70;99.90
59469;DHT22;45277;52.768;18.262;2023-03-14T07:10:56;10.70;99.90
59469;DHT22;45277;52.768;18.262;2023-03-14T07:12:28;10.70;99.90
59469;DHT22;45277;52.768;18.262;2023-03-14T07:14:00;10.70;99.90
59469;DHT22;45277;52.768;18.262;2023-03-14T07:15:31;10.80;99.90
59469;DHT22;45277;52.768;18.262;2023-03-14T07:17:02;10.80;99.90
59469;DHT22;45277;52.768;18.262;2023-03-14T07:18:34;10.80;99.90
59469;DHT22;45277;52.768;18.262;2023-03-14T07:20:06;10.90;99.90
59469;DHT22;45277;52.768;18.262;2023-03-14T07:21:40;11.00;99.90
59469;DHT22;45277;52.768;18.262;2023-03-14T07:23:12;11.00;99.90
59469;DHT22;45277;52.768;18.262;2023-03-14T07:24:43;11.20;99.90
59469;DHT22;45277;52.768;18.262;2023-03-14T07:26:14;11.20;99.90
59469;DHT22;45277;52.768;18.262;2023-03-14T07:27:46;11.30;99.90
59469;DHT22;45277;52.768;18.262;2023-03-14T07:29:18;11.30;99.90
59469;DHT22;45277;52.768;18.262;2023-03-14T07:30:50;11.40;99.90
59469;DHT22;45277;52.768;18.262;2023-03-14T07:32:21;11.50;99.90
59469;DHT22;45277;52.768;18.262;2023-03-14T07:33:53;11.50;99.90
59469;DHT22;45277;52.768;18.262;2023-03-14T07:35:24;11.50;99.90
59469;DHT22;45277;52.768;18.262;2023-03-14T07:36:56;11.50;99.90
59469;DHT22;45277;52.768;18.262;2023-03-14T07:38:28;11.50;99.90
59469;DHT22;45277;52.768;18.262;2023-03-14T07:39:59;11.50;99.90
59469;DHT22;45277;52.768;18.262;2023-03-14T07:41:31;11.50;99.90
59469;DHT22;45277;52.768;18.262;2023-03-14T07:43:03;11.50;99.90
59469;DHT22;45277;52.768;18.262;2023-03-14T07:44:34;11.50;99.90
59469;DHT22;45277;52.768;18.262;2023-03-14T07:46:07;11.40;99.90
59469;DHT22;45277;52.768;18.262;2023-03-14T07:47:38;11.50;99.90
59469;DHT22;45277;52.768;18.262;2023-03-14T07:49:10;11.50;99.90
59469;DHT22;45277;52.768;18.262;2023-03-14T07:50:41;11.50;99.90
59469;DHT22;45277;52.768;18.262;2023-03-14T07:52:13;11.50;99.90
59469;DHT22;45277;52.768;18.262;2023-03-14T07:53:44;11.60;99.90
59469;DHT22;45277;52.768;18.262;2023-03-14T07:55:17;11.60;99.90
59469;DHT22;45277;52.768;18.262;2023-03-14T07:56:49;11.60;99.90
59469;DHT22;45277;52.768;18.262;2023-03-14T07:58:21;11.70;99.90
59469;DHT22;45277;52.768;18.262;2023-03-14T07:59:53;11.70;99.90
59469;DHT22;45277;52.768;18.262;2023-03-14T08:01:24;11.60;99.90
59469;DHT22;45277;52.768;18.262;2023-03-14T08:02:56;11.70;99.90
59469;DHT22;45277;52.768;18.262;2023-03-14T08:04:28;11.70;99.90
59469;DHT22;45277;52.768;18.262;2023-03-14T08:05:59;11.80;99.90
59469;DHT22;45277;52.768;18.262;2023-03-14T08:07:31;11.80;99.90
59469;DHT22;45277;52.768;18.262;2023-03-14T08:09:03;11.80;99.90
59469;DHT22;45277;52.768;18.262;2023-03-14T08:10:35;11.80;99.90
59469;DHT22;45277;52.768;18.262;2023-03-14T08:12:07;11.90;99.90
59469;DHT22;45277;52.768;18.262;2023-03-14T08:13:39;11.90;99.90
59469;DHT22;45277;52.768;18.262;2023-03-14T08:15:11;11.90;99.90
59469;DHT22;45277;52.768;18.262;2023-03-14T08:16:42;12.00;99.90
59469;DHT22;45277;52.768;18.262;2023-03-14T08:18:15;12.00;99.90
59469;DHT22;45277;52.768;18.262;2023-03-14T08:19:46;12.00;99.90
59469;DHT22;45277;52.768;18.262;2023-03-14T08:21:18;12.00;99.90
59469;DHT22;45277;52.768;18.262;2023-03-14T08:22:50;12.10;99.90
59469;DHT22;45277;52.768;18.262;2023-03-14T08:24:22;12.10;99.90
59469;DHT22;45277;52.768;18.262;2023-03-14T08:25:54;12.10;99.90
59469;DHT22;45277;52.768;18.262;2023-03-14T08:27:26;12.20;99.90
59469;DHT22;45277;52.768;18.262;2023-03-14T08:28:58;12.20;99.90
59469;DHT22;45277;52.768;18.262;2023-03-14T08:30:30;12.20;99.90
59469;DHT22;45277;52.768;18.262;2023-03-14T08:32:03;12.30;99.90
59469;DHT22;45277;52.768;18.262;2023-03-14T08:33:34;12.30;99.90
59469;DHT22;45277;52.768;18.262;2023-03-14T08:35:06;12.40;99.90
59469;DHT22;45277;52.768;18.262;2023-03-14T08:36:38;12.40;99.90
59469;DHT22;45277;52.768;18.262;2023-03-14T08:38:09;12.50;99.90
59469;DHT22;45277;52.768;18.262;2023-03-14T08:39:42;12.60;99.90
59469;DHT22;45277;52.768;18.262;2023-03-14T08:41:14;12.60;99.90
59469;DHT22;45277;52.768;18.262;2023-03-14T08:42:45;12.70;99.90
59469;DHT22;45277;52.768;18.262;2023-03-14T08:44:17;12.70;99.90
59469;DHT22;45277;52.768;18.262;2023-03-14T08:45:49;12.70;99.90
59469;DHT22;45277;52.768;18.262;2023-03-14T08:47:21;12.70;99.90
59469;DHT22;45277;52.768;18.262;2023-03-14T08:48:52;12.70;99.90
59469;DHT22;45277;52.768;18.262;2023-03-14T08:50:25;12.80;99.90
59469;DHT22;45277;52.768;18.262;2023-03-14T08:51:56;12.80;99.90
59469;DHT22;45277;52.768;18.262;2023-03-14T08:53:28;12.80;99.90
59469;DHT22;45277;52.768;18.262;2023-03-14T08:54:59;12.80;99.90
59469;DHT22;45277;52.768;18.262;2023-03-14T08:56:31;12.90;99.90
59469;DHT22;45277;52.768;18.262;2023-03-14T08:58:02;12.90;99.90
59469;DHT22;45277;52.768;18.262;2023-03-14T08:59:35;12.90;99.90
59469;DHT22;45277;52.768;18.262;2023-03-14T09:01:09;12.90;99.90
59469;DHT22;45277;52.768;18.262;2023-03-14T09:02:41;12.90;99.90
59469;DHT22;45277;52.768;18.262;2023-03-14T09:04:14;13.00;99.90
59469;DHT22;45277;52.768;18.262;2023-03-14T09:05:45;12.90;99.90
59469;DHT22;45277;52.768;18.262;2023-03-14T09:07:17;12.90;99.90
59469;DHT22;45277;52.768;18.262;2023-03-14T09:08:49;12.90;99.90
59469;DHT22;45277;52.768;18.262;2023-03-14T09:10:21;13.00;99.90
59469;DHT22;45277;52.768;18.262;2023-03-14T09:11:54;13.00;99.90
59469;DHT22;45277;52.768;18.262;2023-03-14T09:13:26;13.00;99.90
59469;DHT22;45277;52.768;18.262;2023-03-14T09:14:57;13.00;99.90
59469;DHT22;45277;52.768;18.262;2023-03-14T09:16:29;13.00;99.90
59469;DHT22;45277;52.768;18.262;2023-03-14T09:18:01;13.10;99.90
59469;DHT22;45277;52.768;18.262;2023-03-14T09:19:32;13.20;99.90
59469;DHT22;45277;52.768;18.262;2023-03-14T09:21:04;13.30;99.90
59469;DHT22;45277;52.768;18.262;2023-03-14T09:22:36;13.40;99.90
59469;DHT22;45277;52.768;18.262;2023-03-14T09:24:07;13.50;99.90
59469;DHT22;45277;52.768;18.262;2023-03-14T09:25:39;13.50;99.90
59469;DHT22;45277;52.768;18.262;2023-03-14T09:27:11;13.60;99.90
59469;DHT22;45277;52.768;18.262;2023-03-14T09:28:42;13.60;99.90
59469;DHT22;45277;52.768;18.262;2023-03-14T09:30:14;13.60;99.90
59469;DHT22;45277;52.768;18.262;2023-03-14T09:31:46;13.60;99.90
59469;DHT22;45277;52.768;18.262;2023-03-14T09:33:18;13.70;99.90
59469;DHT22;45277;52.768;18.262;2023-03-14T09:34:50;13.60;99.90
59469;DHT22;45277;52.768;18.262;2023-03-14T09:36:21;13.70;99.90
59469;DHT22;45277;52.768;18.262;2023-03-14T09:37:53;13.70;99.90
59469;DHT22;45277;52.768;18.262;2023-03-14T09:39:25;13.70;99.90
59469;DHT22;45277;52.768;18.262;2023-03-14T09:40:59;13.70;99.90
59469;DHT22;45277;52.768;18.262;2023-03-14T09:42:36;13.70;99.90
59469;DHT22;45277;52.768;18.262;2023-03-14T09:44:32;13.80;99.90
59469;DHT22;45277;52.768;18.262;2023-03-14T09:46:05;13.80;99.90
59469;DHT22;45277;52.768;18.262;2023-03-14T09:47:36;13.80;99.90
59469;DHT22;45277;52.768;18.262;2023-03-14T09:49:20;13.80;99.90